CheckWX is a tool to help pilots better visualize weather data.  It is not intended as a substitute for an official pre-flight weather briefing.

04:33:19 UTC

ESNZ METAR
Östersund Airport
Östersund, Sweden
Current

13 mins ago

ESNZ 240420Z AUTO 25002KT 9999 OVC053/// 15/13 Q1019
Observed
Jul-24 @ 04:20 UTC
Wind
  • 250° at 2 KTS
Visibility
10,000+ meters
Flight Rules
VFR
Cloud Levels
  • Overcast at 5,300' AGL
Temperature
15°C / 59°F
Dewpoint
13°C / 55°F
Humidity
88%
Altimeter
30.09" Hg
Pressure
1018.92 hPa
Previous

43 mins ago

ESNZ 240350Z AUTO VRB01KT 9999 BKN062/// OVC100/// 15/13 Q1019
Observed
Jul-24 @ 03:50 UTC
Wind
  • Variable at 1 KTS
Visibility
10,000+ meters
Flight Rules
VFR
Cloud Levels
  • Broken at 6,200' AGL
  • Overcast at 10,000' AGL
Temperature
15°C / 59°F
Dewpoint
13°C / 55°F
Humidity
88%
Altimeter
30.09" Hg
Pressure
1018.92 hPa
Previous

1 hour ago

ESNZ 240320Z AUTO 16003KT 9999 OVC068/// 16/12 Q1018
Observed
Jul-24 @ 03:20 UTC
Wind
  • 160° at 3 KTS
Visibility
10,000+ meters
Flight Rules
VFR
Cloud Levels
  • Overcast at 6,800' AGL
Temperature
16°C / 61°F
Dewpoint
12°C / 54°F
Humidity
77%
Altimeter
30.06" Hg
Pressure
1017.92 hPa